sensor_id;sensor_type;location;lat;lon;timestamp;P1;durP1;ratioP1;P2;durP2;ratioP2
56343;SDS011;42245;42.058;24.700;2023-04-15T00:00:02;7.85;;;4.45;;
56343;SDS011;42245;42.058;24.700;2023-04-15T00:02:28;7.85;;;5.22;;
56343;SDS011;42245;42.058;24.700;2023-04-15T00:04:54;10.10;;;5.47;;
56343;SDS011;42245;42.058;24.700;2023-04-15T00:07:19;10.55;;;5.00;;
56343;SDS011;42245;42.058;24.700;2023-04-15T00:09:45;10.70;;;5.30;;
56343;SDS011;42245;42.058;24.700;2023-04-15T00:12:10;8.98;;;5.32;;
56343;SDS011;42245;42.058;24.700;2023-04-15T00:14:36;8.27;;;4.88;;
56343;SDS011;42245;42.058;24.700;2023-04-15T00:17:02;8.52;;;4.57;;
56343;SDS011;42245;42.058;24.700;2023-04-15T00:19:28;8.98;;;4.78;;
56343;SDS011;42245;42.058;24.700;2023-04-15T00:21:54;11.95;;;5.03;;
56343;SDS011;42245;42.058;24.700;2023-04-15T00:24:20;7.85;;;4.70;;
56343;SDS011;42245;42.058;24.700;2023-04-15T00:26:46;7.70;;;4.63;;
56343;SDS011;42245;42.058;24.700;2023-04-15T00:29:11;9.05;;;5.88;;
56343;SDS011;42245;42.058;24.700;2023-04-15T00:31:37;9.32;;;5.78;;
56343;SDS011;42245;42.058;24.700;2023-04-15T00:34:02;8.95;;;5.55;;
56343;SDS011;42245;42.058;24.700;2023-04-15T00:36:28;13.73;;;5.43;;
56343;SDS011;42245;42.058;24.700;2023-04-15T00:38:54;11.27;;;5.05;;
56343;SDS011;42245;42.058;24.700;2023-04-15T00:41:19;9.88;;;5.57;;
56343;SDS011;42245;42.058;24.700;2023-04-15T00:43:45;8.50;;;5.13;;
56343;SDS011;42245;42.058;24.700;2023-04-15T00:46:12;9.80;;;5.97;;
56343;SDS011;42245;42.058;24.700;2023-04-15T00:48:38;9.48;;;5.22;;
56343;SDS011;42245;42.058;24.700;2023-04-15T00:51:04;10.23;;;5.15;;
56343;SDS011;42245;42.058;24.700;2023-04-15T00:53:31;10.05;;;5.47;;
56343;SDS011;42245;42.058;24.700;2023-04-15T00:55:57;11.43;;;5.22;;
56343;SDS011;42245;42.058;24.700;2023-04-15T00:58:22;8.95;;;5.38;;
56343;SDS011;42245;42.058;24.700;2023-04-15T01:00:48;12.35;;;5.40;;
56343;SDS011;42245;42.058;24.700;2023-04-15T01:03:16;8.15;;;4.95;;
56343;SDS011;42245;42.058;24.700;2023-04-15T01:05:42;9.55;;;5.28;;
56343;SDS011;42245;42.058;24.700;2023-04-15T01:08:07;7.68;;;4.70;;
56343;SDS011;42245;42.058;24.700;2023-04-15T01:10:33;8.73;;;5.05;;
56343;SDS011;42245;42.058;24.700;2023-04-15T01:13:00;10.55;;;5.65;;
56343;SDS011;42245;42.058;24.700;2023-04-15T01:15:25;6.57;;;4.78;;
56343;SDS011;42245;42.058;24.700;2023-04-15T01:17:51;8.98;;;5.30;;
56343;SDS011;42245;42.058;24.700;2023-04-15T01:20:17;11.07;;;4.63;;
56343;SDS011;42245;42.058;24.700;2023-04-15T01:22:42;10.32;;;4.55;;
56343;SDS011;42245;42.058;24.700;2023-04-15T01:25:10;8.75;;;4.30;;
56343;SDS011;42245;42.058;24.700;2023-04-15T01:27:39;6.88;;;3.90;;
56343;SDS011;42245;42.058;24.700;2023-04-15T01:30:06;7.57;;;3.78;;
56343;SDS011;42245;42.058;24.700;2023-04-15T01:32:33;7.80;;;3.60;;
56343;SDS011;42245;42.058;24.700;2023-04-15T01:34:58;9.77;;;3.60;;
56343;SDS011;42245;42.058;24.700;2023-04-15T01:37:24;7.80;;;4.00;;
56343;SDS011;42245;42.058;24.700;2023-04-15T01:39:50;9.57;;;3.70;;
56343;SDS011;42245;42.058;24.700;2023-04-15T01:42:16;8.65;;;3.88;;
56343;SDS011;42245;42.058;24.700;2023-04-15T01:44:41;10.73;;;3.75;;
56343;SDS011;42245;42.058;24.700;2023-04-15T01:47:07;7.75;;;3.72;;
56343;SDS011;42245;42.058;24.700;2023-04-15T01:49:32;5.75;;;3.67;;
56343;SDS011;42245;42.058;24.700;2023-04-15T01:51:58;9.18;;;4.05;;
56343;SDS011;42245;42.058;24.700;2023-04-15T01:54:24;9.82;;;4.85;;
56343;SDS011;42245;42.058;24.700;2023-04-15T01:56:51;8.50;;;5.28;;
56343;SDS011;42245;42.058;24.700;2023-04-15T01:59:17;9.88;;;5.80;;
56343;SDS011;42245;42.058;24.700;2023-04-15T02:01:42;10.65;;;5.70;;
56343;SDS011;42245;42.058;24.700;2023-04-15T02:04:09;11.98;;;6.32;;
56343;SDS011;42245;42.058;24.700;2023-04-15T02:06:41;8.77;;;5.28;;
56343;SDS011;42245;42.058;24.700;2023-04-15T02:09:07;9.48;;;5.13;;
56343;SDS011;42245;42.058;24.700;2023-04-15T02:11:33;7.18;;;3.90;;
56343;SDS011;42245;42.058;24.700;2023-04-15T02:14:01;9.30;;;4.15;;
56343;SDS011;42245;42.058;24.700;2023-04-15T02:16:26;9.18;;;4.25;;
56343;SDS011;42245;42.058;24.700;2023-04-15T02:18:52;9.40;;;4.15;;
56343;SDS011;42245;42.058;24.700;2023-04-15T02:21:17;7.68;;;3.78;;
56343;SDS011;42245;42.058;24.700;2023-04-15T02:23:43;8.13;;;3.83;;
56343;SDS011;42245;42.058;24.700;2023-04-15T02:26:08;4.82;;;3.33;;
56343;SDS011;42245;42.058;24.700;2023-04-15T02:28:34;6.20;;;3.50;;
56343;SDS011;42245;42.058;24.700;2023-04-15T02:31:03;6.45;;;3.30;;
56343;SDS011;42245;42.058;24.700;2023-04-15T02:33:30;9.00;;;4.80;;
56343;SDS011;42245;42.058;24.700;2023-04-15T02:35:56;8.55;;;4.10;;
56343;SDS011;42245;42.058;24.700;2023-04-15T02:38:21;6.93;;;3.67;;
56343;SDS011;42245;42.058;24.700;2023-04-15T02:40:47;5.35;;;3.17;;
56343;SDS011;42245;42.058;24.700;2023-04-15T02:43:14;5.65;;;3.15;;
56343;SDS011;42245;42.058;24.700;2023-04-15T02:45:41;7.60;;;3.85;;
56343;SDS011;42245;42.058;24.700;2023-04-15T02:48:07;7.95;;;4.32;;
56343;SDS011;42245;42.058;24.700;2023-04-15T02:50:33;8.35;;;3.40;;
56343;SDS011;42245;42.058;24.700;2023-04-15T02:52:58;6.03;;;3.40;;
56343;SDS011;42245;42.058;24.700;2023-04-15T02:55:25;4.32;;;2.83;;
56343;SDS011;42245;42.058;24.700;2023-04-15T02:57:51;7.75;;;3.10;;
56343;SDS011;42245;42.058;24.700;2023-04-15T03:00:16;6.30;;;3.10;;
56343;SDS011;42245;42.058;24.700;2023-04-15T03:02:43;7.47;;;3.28;;
56343;SDS011;42245;42.058;24.700;2023-04-15T03:05:10;8.27;;;3.83;;
56343;SDS011;42245;42.058;24.700;2023-04-15T03:07:37;7.85;;;3.00;;
56343;SDS011;42245;42.058;24.700;2023-04-15T03:10:04;6.32;;;3.08;;
56343;SDS011;42245;42.058;24.700;2023-04-15T03:12:30;5.47;;;3.05;;
56343;SDS011;42245;42.058;24.700;2023-04-15T03:14:55;5.35;;;2.97;;
56343;SDS011;42245;42.058;24.700;2023-04-15T03:17:21;5.13;;;3.10;;
56343;SDS011;42245;42.058;24.700;2023-04-15T03:19:46;6.63;;;3.58;;
56343;SDS011;42245;42.058;24.700;2023-04-15T03:22:12;11.30;;;4.10;;
56343;SDS011;42245;42.058;24.700;2023-04-15T03:24:37;10.35;;;5.38;;
56343;SDS011;42245;42.058;24.700;2023-04-15T03:27:03;10.82;;;5.63;;
56343;SDS011;42245;42.058;24.700;2023-04-15T03:29:30;9.00;;;6.05;;
56343;SDS011;42245;42.058;24.700;2023-04-15T03:31:55;12.80;;;5.80;;
56343;SDS011;42245;42.058;24.700;2023-04-15T03:34:21;12.55;;;5.90;;
56343;SDS011;42245;42.058;24.700;2023-04-15T03:36:46;18.92;;;5.93;;
56343;SDS011;42245;42.058;24.700;2023-04-15T03:39:12;8.43;;;5.57;;
56343;SDS011;42245;42.058;24.700;2023-04-15T03:41:37;11.52;;;5.35;;
56343;SDS011;42245;42.058;24.700;2023-04-15T03:44:03;8.18;;;5.38;;
56343;SDS011;42245;42.058;24.700;2023-04-15T03:46:28;8.77;;;5.10;;
56343;SDS011;42245;42.058;24.700;2023-04-15T03:48:54;8.52;;;5.15;;
56343;SDS011;42245;42.058;24.700;2023-04-15T03:51:19;6.90;;;5.13;;
56343;SDS011;42245;42.058;24.700;2023-04-15T03:53:45;9.07;;;5.53;;
56343;SDS011;42245;42.058;24.700;2023-04-15T03:56:10;9.77;;;4.68;;
56343;SDS011;42245;42.058;24.700;2023-04-15T03:58:36;6.45;;;3.90;;
56343;SDS011;42245;42.058;24.700;2023-04-15T04:01:01;7.35;;;4.05;;
56343;SDS011;42245;42.058;24.700;2023-04-15T04:03:27;7.32;;;4.63;;
56343;SDS011;42245;42.058;24.700;2023-04-15T04:05:52;12.15;;;4.90;;
56343;SDS011;42245;42.058;24.700;2023-04-15T04:08:18;13.63;;;6.68;;
56343;SDS011;42245;42.058;24.700;2023-04-15T04:10:45;14.77;;;7.50;;
56343;SDS011;42245;42.058;24.700;2023-04-15T04:13:11;19.27;;;6.53;;
56343;SDS011;42245;42.058;24.700;2023-04-15T04:15:36;10.02;;;5.65;;
56343;SDS011;42245;42.058;24.700;2023-04-15T04:18:02;9.32;;;5.18;;
56343;SDS011;42245;42.058;24.700;2023-04-15T04:20:27;7.82;;;4.40;;
56343;SDS011;42245;42.058;24.700;2023-04-15T04:22:53;9.32;;;4.55;;
56343;SDS011;42245;42.058;24.700;2023-04-15T04:25:18;7.30;;;3.85;;
56343;SDS011;42245;42.058;24.700;2023-04-15T04:27:44;6.93;;;3.80;;
56343;SDS011;42245;42.058;24.700;2023-04-15T04:30:09;7.60;;;4.18;;
56343;SDS011;42245;42.058;24.700;2023-04-15T04:32:36;8.23;;;3.85;;
56343;SDS011;42245;42.058;24.700;2023-04-15T04:35:01;6.75;;;3.60;;
56343;SDS011;42245;42.058;24.700;2023-04-15T04:37:27;14.10;;;3.55;;
56343;SDS011;42245;42.058;24.700;2023-04-15T04:39:53;8.73;;;3.70;;
56343;SDS011;42245;42.058;24.700;2023-04-15T04:42:18;8.18;;;3.35;;
56343;SDS011;42245;42.058;24.700;2023-04-15T04:44:44;6.63;;;3.30;;
56343;SDS011;42245;42.058;24.700;2023-04-15T04:47:09;5.93;;;2.60;;
56343;SDS011;42245;42.058;24.700;2023-04-15T04:49:35;7.20;;;2.83;;
56343;SDS011;42245;42.058;24.700;2023-04-15T04:52:00;6.75;;;3.60;;
56343;SDS011;42245;42.058;24.700;2023-04-15T04:54:26;11.80;;;4.45;;
56343;SDS011;42245;42.058;24.700;2023-04-15T04:56:52;7.90;;;4.53;;
56343;SDS011;42245;42.058;24.700;2023-04-15T04:59:17;7.82;;;4.97;;
56343;SDS011;42245;42.058;24.700;2023-04-15T05:01:43;7.25;;;4.22;;
56343;SDS011;42245;42.058;24.700;2023-04-15T05:04:09;6.95;;;4.35;;
56343;SDS011;42245;42.058;24.700;2023-04-15T05:06:34;5.15;;;3.65;;
56343;SDS011;42245;42.058;24.700;2023-04-15T05:09:01;8.25;;;4.38;;
56343;SDS011;42245;42.058;24.700;2023-04-15T05:11:27;6.60;;;4.65;;
56343;SDS011;42245;42.058;24.700;2023-04-15T05:13:53;11.23;;;4.07;;
56343;SDS011;42245;42.058;24.700;2023-04-15T05:16:18;5.80;;;3.20;;
56343;SDS011;42245;42.058;24.700;2023-04-15T05:18:44;6.00;;;3.03;;
56343;SDS011;42245;42.058;24.700;2023-04-15T05:21:10;4.88;;;3.80;;
56343;SDS011;42245;42.058;24.700;2023-04-15T05:23:36;4.47;;;3.60;;
56343;SDS011;42245;42.058;24.700;2023-04-15T05:26:01;3.88;;;2.33;;
56343;SDS011;42245;42.058;24.700;2023-04-15T05:28:27;5.10;;;2.88;;
56343;SDS011;42245;42.058;24.700;2023-04-15T05:30:53;4.60;;;2.70;;
56343;SDS011;42245;42.058;24.700;2023-04-15T05:33:18;5.13;;;2.03;;
56343;SDS011;42245;42.058;24.700;2023-04-15T05:35:44;4.18;;;2.30;;
56343;SDS011;42245;42.058;24.700;2023-04-15T05:38:10;5.75;;;2.63;;
56343;SDS011;42245;42.058;24.700;2023-04-15T05:40:35;9.23;;;3.40;;
56343;SDS011;42245;42.058;24.700;2023-04-15T05:43:01;9.55;;;4.05;;
56343;SDS011;42245;42.058;24.700;2023-04-15T05:45:26;8.88;;;3.92;;
56343;SDS011;42245;42.058;24.700;2023-04-15T05:47:52;9.13;;;3.85;;
56343;SDS011;42245;42.058;24.700;2023-04-15T05:50:18;5.32;;;2.92;;
56343;SDS011;42245;42.058;24.700;2023-04-15T05:52:44;7.50;;;3.13;;
56343;SDS011;42245;42.058;24.700;2023-04-15T05:55:10;5.63;;;2.63;;
56343;SDS011;42245;42.058;24.700;2023-04-15T05:57:36;8.80;;;2.83;;
56343;SDS011;42245;42.058;24.700;2023-04-15T06:00:02;5.90;;;2.40;;
56343;SDS011;42245;42.058;24.700;2023-04-15T06:02:29;5.38;;;2.45;;
56343;SDS011;42245;42.058;24.700;2023-04-15T06:04:55;7.28;;;4.28;;
56343;SDS011;42245;42.058;24.700;2023-04-15T06:07:21;7.72;;;4.38;;
56343;SDS011;42245;42.058;24.700;2023-04-15T06:09:47;9.52;;;4.40;;
56343;SDS011;42245;42.058;24.700;2023-04-15T06:12:13;9.27;;;4.50;;
56343;SDS011;42245;42.058;24.700;2023-04-15T06:14:39;10.32;;;4.28;;
56343;SDS011;42245;42.058;24.700;2023-04-15T06:17:05;7.10;;;4.40;;
56343;SDS011;42245;42.058;24.700;2023-04-15T06:19:31;6.68;;;4.18;;
56343;SDS011;42245;42.058;24.700;2023-04-15T06:21:57;9.40;;;4.30;;
56343;SDS011;42245;42.058;24.700;2023-04-15T06:24:23;7.78;;;3.88;;
56343;SDS011;42245;42.058;24.700;2023-04-15T06:26:48;4.68;;;3.60;;
56343;SDS011;42245;42.058;24.700;2023-04-15T06:29:14;6.47;;;4.30;;
56343;SDS011;42245;42.058;24.700;2023-04-15T06:31:40;13.80;;;4.20;;
56343;SDS011;42245;42.058;24.700;2023-04-15T06:34:05;7.97;;;4.55;;
56343;SDS011;42245;42.058;24.700;2023-04-15T06:36:31;6.43;;;3.53;;
56343;SDS011;42245;42.058;24.700;2023-04-15T06:38:57;11.68;;;3.50;;
56343;SDS011;42245;42.058;24.700;2023-04-15T06:41:22;6.30;;;3.20;;
56343;SDS011;42245;42.058;24.700;2023-04-15T06:43:48;6.28;;;4.03;;
56343;SDS011;42245;42.058;24.700;2023-04-15T06:46:13;6.80;;;3.67;;
56343;SDS011;42245;42.058;24.700;2023-04-15T06:48:39;6.65;;;3.40;;
56343;SDS011;42245;42.058;24.700;2023-04-15T06:51:04;7.63;;;3.55;;
56343;SDS011;42245;42.058;24.700;2023-04-15T06:53:30;4.25;;;2.70;;
56343;SDS011;42245;42.058;24.700;2023-04-15T06:55:55;4.93;;;2.90;;
56343;SDS011;42245;42.058;24.700;2023-04-15T06:58:21;5.45;;;2.70;;
56343;SDS011;42245;42.058;24.700;2023-04-15T07:00:46;6.18;;;2.60;;
56343;SDS011;42245;42.058;24.700;2023-04-15T07:03:12;5.10;;;3.20;;
56343;SDS011;42245;42.058;24.700;2023-04-15T07:05:39;4.05;;;2.25;;
56343;SDS011;42245;42.058;24.700;2023-04-15T07:08:05;4.68;;;2.72;;
56343;SDS011;42245;42.058;24.700;2023-04-15T07:10:32;8.32;;;2.70;;
56343;SDS011;42245;42.058;24.700;2023-04-15T07:12:58;11.48;;;2.92;;
56343;SDS011;42245;42.058;24.700;2023-04-15T07:15:23;22.23;;;3.38;;
56343;SDS011;42245;42.058;24.700;2023-04-15T07:17:49;6.60;;;3.13;;
56343;SDS011;42245;42.058;24.700;2023-04-15T07:20:14;5.63;;;3.00;;
56343;SDS011;42245;42.058;24.700;2023-04-15T07:22:40;8.18;;;3.42;;
56343;SDS011;42245;42.058;24.700;2023-04-15T07:25:05;5.60;;;3.45;;
56343;SDS011;42245;42.058;24.700;2023-04-15T07:27:31;13.05;;;4.40;;
56343;SDS011;42245;42.058;24.700;2023-04-15T07:29:57;5.30;;;3.35;;
56343;SDS011;42245;42.058;24.700;2023-04-15T07:32:22;6.00;;;3.00;;
56343;SDS011;42245;42.058;24.700;2023-04-15T07:34:48;8.40;;;3.38;;
56343;SDS011;42245;42.058;24.700;2023-04-15T07:37:14;6.47;;;3.53;;
56343;SDS011;42245;42.058;24.700;2023-04-15T07:39:39;27.77;;;4.88;;
56343;SDS011;42245;42.058;24.700;2023-04-15T07:42:05;10.80;;;4.30;;
56343;SDS011;42245;42.058;24.700;2023-04-15T07:44:31;7.60;;;3.75;;
56343;SDS011;42245;42.058;24.700;2023-04-15T07:46:56;18.25;;;4.40;;
56343;SDS011;42245;42.058;24.700;2023-04-15T07:49:22;8.60;;;4.00;;
56343;SDS011;42245;42.058;24.700;2023-04-15T07:51:48;7.05;;;4.07;;
56343;SDS011;42245;42.058;24.700;2023-04-15T07:54:14;20.02;;;4.30;;
56343;SDS011;42245;42.058;24.700;2023-04-15T07:56:39;7.97;;;4.10;;
56343;SDS011;42245;42.058;24.700;2023-04-15T07:59:05;15.25;;;4.90;;
56343;SDS011;42245;42.058;24.700;2023-04-15T08:01:31;7.32;;;3.55;;
56343;SDS011;42245;42.058;24.700;2023-04-15T08:03:57;9.40;;;4.47;;
56343;SDS011;42245;42.058;24.700;2023-04-15T08:06:23;12.02;;;3.90;;
56343;SDS011;42245;42.058;24.700;2023-04-15T08:08:48;5.65;;;3.40;;
56343;SDS011;42245;42.058;24.700;2023-04-15T08:11:14;6.85;;;4.03;;
56343;SDS011;42245;42.058;24.700;2023-04-15T08:13:40;6.88;;;4.03;;
56343;SDS011;42245;42.058;24.700;2023-04-15T08:16:13;10.55;;;4.13;;
56343;SDS011;42245;42.058;24.700;2023-04-15T08:18:48;8.25;;;4.10;;
56343;SDS011;42245;42.058;24.700;2023-04-15T08:21:15;10.77;;;4.18;;
56343;SDS011;42245;42.058;24.700;2023-04-15T08:23:42;9.15;;;3.60;;
56343;SDS011;42245;42.058;24.700;2023-04-15T08:26:07;8.60;;;4.28;;
56343;SDS011;42245;42.058;24.700;2023-04-15T08:28:33;7.50;;;3.70;;
56343;SDS011;42245;42.058;24.700;2023-04-15T08:30:59;10.90;;;3.70;;
56343;SDS011;42245;42.058;24.700;2023-04-15T08:33:25;6.93;;;3.92;;
56343;SDS011;42245;42.058;24.700;2023-04-15T08:35:50;5.25;;;3.15;;
56343;SDS011;42245;42.058;24.700;2023-04-15T08:38:16;8.45;;;3.30;;
56343;SDS011;42245;42.058;24.700;2023-04-15T08:40:43;8.20;;;3.30;;
56343;SDS011;42245;42.058;24.700;2023-04-15T08:43:10;7.53;;;3.30;;
56343;SDS011;42245;42.058;24.700;2023-04-15T08:45:37;7.82;;;3.67;;
56343;SDS011;42245;42.058;24.700;2023-04-15T08:48:04;6.15;;;2.83;;
56343;SDS011;42245;42.058;24.700;2023-04-15T08:50:30;6.75;;;3.00;;
56343;SDS011;42245;42.058;24.700;2023-04-15T08:52:59;7.13;;;3.42;;
56343;SDS011;42245;42.058;24.700;2023-04-15T08:55:26;6.22;;;3.55;;
56343;SDS011;42245;42.058;24.700;2023-04-15T08:58:00;9.73;;;3.85;;
56343;SDS011;42245;42.058;24.700;2023-04-15T09:00:26;7.78;;;3.50;;
56343;SDS011;42245;42.058;24.700;2023-04-15T09:02:53;7.78;;;4.28;;
56343;SDS011;42245;42.058;24.700;2023-04-15T09:05:20;8.70;;;4.00;;
56343;SDS011;42245;42.058;24.700;2023-04-15T09:07:47;13.77;;;5.03;;
56343;SDS011;42245;42.058;24.700;2023-04-15T09:10:12;7.30;;;3.05;;
56343;SDS011;42245;42.058;24.700;2023-04-15T09:12:38;10.77;;;3.20;;
56343;SDS011;42245;42.058;24.700;2023-04-15T09:15:03;6.45;;;3.03;;
56343;SDS011;42245;42.058;24.700;2023-04-15T09:17:29;7.55;;;3.28;;
56343;SDS011;42245;42.058;24.700;2023-04-15T09:20:07;6.15;;;2.95;;
56343;SDS011;42245;42.058;24.700;2023-04-15T09:22:34;7.22;;;3.00;;
56343;SDS011;42245;42.058;24.700;2023-04-15T09:25:01;6.15;;;3.30;;
56343;SDS011;42245;42.058;24.700;2023-04-15T09:27:27;5.95;;;2.85;;
56343;SDS011;42245;42.058;24.700;2023-04-15T09:29:53;6.05;;;3.00;;
56343;SDS011;42245;42.058;24.700;2023-04-15T09:32:18;7.13;;;3.25;;
56343;SDS011;42245;42.058;24.700;2023-04-15T09:34:47;12.23;;;3.05;;
56343;SDS011;42245;42.058;24.700;2023-04-15T09:37:13;8.02;;;2.83;;
56343;SDS011;42245;42.058;24.700;2023-04-15T09:39:46;8.27;;;2.70;;
56343;SDS011;42245;42.058;24.700;2023-04-15T09:42:12;8.10;;;3.40;;
56343;SDS011;42245;42.058;24.700;2023-04-15T09:44:38;5.32;;;2.88;;
56343;SDS011;42245;42.058;24.700;2023-04-15T09:47:04;8.10;;;3.10;;
56343;SDS011;42245;42.058;24.700;2023-04-15T09:49:30;5.93;;;2.95;;
56343;SDS011;42245;42.058;24.700;2023-04-15T09:51:59;5.75;;;3.00;;
56343;SDS011;42245;42.058;24.700;2023-04-15T09:54:31;8.77;;;3.42;;
56343;SDS011;42245;42.058;24.700;2023-04-15T09:57:04;9.20;;;3.45;;
56343;SDS011;42245;42.058;24.700;2023-04-15T09:59:30;6.05;;;3.42;;
56343;SDS011;42245;42.058;24.700;2023-04-15T10:01:55;8.50;;;3.50;;
56343;SDS011;42245;42.058;24.700;2023-04-15T10:04:21;5.65;;;3.30;;
56343;SDS011;42245;42.058;24.700;2023-04-15T10:06:47;7.25;;;3.63;;
56343;SDS011;42245;42.058;24.700;2023-04-15T10:09:12;12.80;;;3.63;;
56343;SDS011;42245;42.058;24.700;2023-04-15T10:11:38;9.73;;;3.28;;
56343;SDS011;42245;42.058;24.700;2023-04-15T10:14:03;7.47;;;3.13;;
56343;SDS011;42245;42.058;24.700;2023-04-15T10:16:30;20.27;;;3.25;;
56343;SDS011;42245;42.058;24.700;2023-04-15T10:18:56;8.05;;;3.55;;
56343;SDS011;42245;42.058;24.700;2023-04-15T10:21:26;10.45;;;4.15;;
56343;SDS011;42245;42.058;24.700;2023-04-15T10:23:52;13.02;;;4.40;;
56343;SDS011;42245;42.058;24.700;2023-04-15T10:26:17;7.97;;;4.28;;
56343;SDS011;42245;42.058;24.700;2023-04-15T10:28:43;5.60;;;3.60;;
56343;SDS011;42245;42.058;24.700;2023-04-15T10:31:11;9.07;;;3.90;;
56343;SDS011;42245;42.058;24.700;2023-04-15T10:33:37;8.15;;;4.75;;
56343;SDS011;42245;42.058;24.700;2023-04-15T10:36:03;7.38;;;3.30;;
56343;SDS011;42245;42.058;24.700;2023-04-15T10:38:31;6.80;;;3.45;;
56343;SDS011;42245;42.058;24.700;2023-04-15T10:43:51;6.45;;;3.45;;
56343;SDS011;42245;42.058;24.700;2023-04-15T10:46:37;7.40;;;3.38;;
56343;SDS011;42245;42.058;24.700;2023-04-15T10:49:07;6.97;;;2.65;;
56343;SDS011;42245;42.058;24.700;2023-04-15T10:51:34;7.35;;;2.63;;
56343;SDS011;42245;42.058;24.700;2023-04-15T10:54:05;8.52;;;2.53;;
56343;SDS011;42245;42.058;24.700;2023-04-15T10:56:50;9.13;;;2.17;;
56343;SDS011;42245;42.058;24.700;2023-04-15T10:59:37;5.43;;;2.60;;
56343;SDS011;42245;42.058;24.700;2023-04-15T11:02:06;6.47;;;2.83;;
56343;SDS011;42245;42.058;24.700;2023-04-15T11:07:35;6.70;;;2.90;;
56343;SDS011;42245;42.058;24.700;2023-04-15T11:12:38;8.65;;;3.92;;
56343;SDS011;42245;42.058;24.700;2023-04-15T11:18:13;8.05;;;4.10;;
56343;SDS011;42245;42.058;24.700;2023-04-15T11:20:44;8.07;;;4.60;;
56343;SDS011;42245;42.058;24.700;2023-04-15T11:23:11;9.82;;;4.28;;
56343;SDS011;42245;42.058;24.700;2023-04-15T11:25:37;8.20;;;4.30;;
56343;SDS011;42245;42.058;24.700;2023-04-15T11:28:02;7.75;;;4.05;;
56343;SDS011;42245;42.058;24.700;2023-04-15T11:30:29;7.88;;;4.35;;
56343;SDS011;42245;42.058;24.700;2023-04-15T11:33:00;8.27;;;5.32;;
56343;SDS011;42245;42.058;24.700;2023-04-15T11:35:26;12.93;;;4.20;;
56343;SDS011;42245;42.058;24.700;2023-04-15T11:38:12;10.82;;;4.25;;
56343;SDS011;42245;42.058;24.700;2023-04-15T11:40:38;7.30;;;4.47;;
56343;SDS011;42245;42.058;24.700;2023-04-15T11:48:15;6.65;;;3.85;;
56343;SDS011;42245;42.058;24.700;2023-04-15T11:50:41;10.75;;;4.82;;
56343;SDS011;42245;42.058;24.700;2023-04-15T11:53:09;9.52;;;4.97;;
56343;SDS011;42245;42.058;24.700;2023-04-15T11:55:46;8.82;;;4.97;;
56343;SDS011;42245;42.058;24.700;2023-04-15T11:58:20;11.65;;;5.15;;
56343;SDS011;42245;42.058;24.700;2023-04-15T12:03:28;9.25;;;5.70;;
56343;SDS011;42245;42.058;24.700;2023-04-15T12:11:46;11.52;;;5.22;;
56343;SDS011;42245;42.058;24.700;2023-04-15T12:16:52;8.90;;;4.53;;
56343;SDS011;42245;42.058;24.700;2023-04-15T12:19:23;7.72;;;4.13;;
56343;SDS011;42245;42.058;24.700;2023-04-15T12:21:50;11.73;;;3.88;;
56343;SDS011;42245;42.058;24.700;2023-04-15T12:24:19;7.97;;;3.58;;
56343;SDS011;42245;42.058;24.700;2023-04-15T12:26:48;7.50;;;3.88;;
56343;SDS011;42245;42.058;24.700;2023-04-15T12:29:14;6.60;;;3.75;;
56343;SDS011;42245;42.058;24.700;2023-04-15T12:31:47;6.45;;;3.78;;
56343;SDS011;42245;42.058;24.700;2023-04-15T12:34:17;7.68;;;3.53;;
56343;SDS011;42245;42.058;24.700;2023-04-15T12:36:44;6.90;;;3.60;;
56343;SDS011;42245;42.058;24.700;2023-04-15T12:39:09;9.35;;;3.63;;
56343;SDS011;42245;42.058;24.700;2023-04-15T12:41:35;7.68;;;3.10;;
56343;SDS011;42245;42.058;24.700;2023-04-15T12:44:00;7.20;;;3.47;;
56343;SDS011;42245;42.058;24.700;2023-04-15T12:46:26;15.15;;;4.00;;
56343;SDS011;42245;42.058;24.700;2023-04-15T12:48:51;5.70;;;3.17;;
56343;SDS011;42245;42.058;24.700;2023-04-15T12:51:17;6.03;;;2.90;;
56343;SDS011;42245;42.058;24.700;2023-04-15T12:53:43;9.40;;;3.00;;
56343;SDS011;42245;42.058;24.700;2023-04-15T12:56:08;7.88;;;3.00;;
56343;SDS011;42245;42.058;24.700;2023-04-15T12:58:34;3.72;;;2.10;;
56343;SDS011;42245;42.058;24.700;2023-04-15T13:01:00;7.63;;;2.63;;
56343;SDS011;42245;42.058;24.700;2023-04-15T13:03:25;6.15;;;2.63;;
56343;SDS011;42245;42.058;24.700;2023-04-15T13:05:51;5.72;;;3.05;;
56343;SDS011;42245;42.058;24.700;2023-04-15T13:08:17;5.55;;;2.42;;
56343;SDS011;42245;42.058;24.700;2023-04-15T13:10:42;8.93;;;2.47;;
56343;SDS011;42245;42.058;24.700;2023-04-15T13:13:08;6.75;;;2.35;;
56343;SDS011;42245;42.058;24.700;2023-04-15T13:15:33;4.40;;;1.90;;
56343;SDS011;42245;42.058;24.700;2023-04-15T13:17:59;5.15;;;2.20;;
56343;SDS011;42245;42.058;24.700;2023-04-15T13:20:25;7.68;;;2.80;;
56343;SDS011;42245;42.058;24.700;2023-04-15T13:22:51;6.82;;;2.95;;
56343;SDS011;42245;42.058;24.700;2023-04-15T13:25:17;4.82;;;2.45;;
56343;SDS011;42245;42.058;24.700;2023-04-15T13:27:42;7.05;;;2.30;;
56343;SDS011;42245;42.058;24.700;2023-04-15T13:30:08;7.00;;;2.13;;
56343;SDS011;42245;42.058;24.700;2023-04-15T13:32:33;8.23;;;2.55;;
56343;SDS011;42245;42.058;24.700;2023-04-15T13:34:59;8.43;;;2.30;;
56343;SDS011;42245;42.058;24.700;2023-04-15T13:37:28;7.82;;;2.35;;
56343;SDS011;42245;42.058;24.700;2023-04-15T13:39:54;7.78;;;2.53;;
56343;SDS011;42245;42.058;24.700;2023-04-15T13:42:20;13.68;;;2.15;;
56343;SDS011;42245;42.058;24.700;2023-04-15T13:44:46;5.05;;;2.22;;
56343;SDS011;42245;42.058;24.700;2023-04-15T13:47:12;4.50;;;2.42;;
56343;SDS011;42245;42.058;24.700;2023-04-15T13:49:39;5.25;;;2.28;;
56343;SDS011;42245;42.058;24.700;2023-04-15T13:52:04;4.55;;;2.38;;
56343;SDS011;42245;42.058;24.700;2023-04-15T13:54:30;6.05;;;2.30;;
56343;SDS011;42245;42.058;24.700;2023-04-15T13:56:56;6.65;;;2.20;;
56343;SDS011;42245;42.058;24.700;2023-04-15T13:59:22;5.72;;;2.13;;
56343;SDS011;42245;42.058;24.700;2023-04-15T14:01:47;5.30;;;2.35;;
56343;SDS011;42245;42.058;24.700;2023-04-15T14:04:13;8.10;;;2.42;;
56343;SDS011;42245;42.058;24.700;2023-04-15T14:06:38;13.75;;;3.65;;
56343;SDS011;42245;42.058;24.700;2023-04-15T14:09:04;7.60;;;2.40;;
56343;SDS011;42245;42.058;24.700;2023-04-15T14:11:30;7.10;;;2.67;;
56343;SDS011;42245;42.058;24.700;2023-04-15T14:13:55;7.05;;;2.35;;
56343;SDS011;42245;42.058;24.700;2023-04-15T14:16:21;5.97;;;2.55;;
56343;SDS011;42245;42.058;24.700;2023-04-15T14:18:47;6.28;;;2.53;;
56343;SDS011;42245;42.058;24.700;2023-04-15T14:21:12;6.82;;;2.83;;
56343;SDS011;42245;42.058;24.700;2023-04-15T14:23:38;9.57;;;5.00;;
56343;SDS011;42245;42.058;24.700;2023-04-15T14:26:04;9.48;;;4.93;;
56343;SDS011;42245;42.058;24.700;2023-04-15T14:28:30;8.70;;;4.63;;
56343;SDS011;42245;42.058;24.700;2023-04-15T14:30:56;5.57;;;3.38;;
56343;SDS011;42245;42.058;24.700;2023-04-15T14:33:21;5.50;;;2.65;;
56343;SDS011;42245;42.058;24.700;2023-04-15T14:35:48;11.35;;;3.25;;
56343;SDS011;42245;42.058;24.700;2023-04-15T14:38:14;7.22;;;2.40;;
56343;SDS011;42245;42.058;24.700;2023-04-15T14:40:40;16.63;;;10.18;;
56343;SDS011;42245;42.058;24.700;2023-04-15T14:43:05;5.55;;;2.55;;
56343;SDS011;42245;42.058;24.700;2023-04-15T14:45:31;5.70;;;2.30;;
56343;SDS011;42245;42.058;24.700;2023-04-15T14:47:57;7.63;;;2.70;;
56343;SDS011;42245;42.058;24.700;2023-04-15T14:50:23;4.10;;;2.83;;
56343;SDS011;42245;42.058;24.700;2023-04-15T14:52:49;6.05;;;3.60;;
56343;SDS011;42245;42.058;24.700;2023-04-15T14:55:15;7.10;;;3.50;;